Terminal Aerodrome Forecast
Issued by NWS Cleveland, OH

Home | Current Version | Previous Version | Text Only | Print | Product List | Glossary Off
Versions: 1 2 3 4 5 6 7 8 9 10 11 12 13 14 15 16 17 18 19 20 21 22 23 24 25 26 27 28 29 30 31 32 33

614
FTUS41 KCLE 130548
TAFCLE
TAF
KCLE 130548Z 1306/1412 30014G22KT P6SM BKN040
     FM131200 28012KT P6SM VCSH SCT015 OVC035
     FM131500 25010KT P6SM SCT025 OVC035
     FM131800 20010KT 3SM -SN OVC015
      TEMPO 1400/1404 1/2SM SN OVC006
     FM140600 01010KT 3SM -SN BKN010 OVC025=

USA.gov is the U.S. government's official web portal to all federal, state and local government web resources and services.